createdAt,value
2022-11-08T00:00:44.765Z,98860.91
2022-11-08T00:03:12.076Z,98858.59
2022-11-08T00:05:57.677Z,98863.03
2022-11-08T00:08:43.797Z,98853.63
2022-11-08T00:11:29.005Z,98858.06
2022-11-08T00:13:59.830Z,98859.53
2022-11-08T00:16:27.917Z,98856.53
2022-11-08T00:18:55.280Z,98852.53
2022-11-08T00:21:24.558Z,98852.41
2022-11-08T00:23:52.307Z,98852.53
2022-11-08T00:26:20.062Z,98852.53
2022-11-08T00:28:46.712Z,98846.00
2022-11-08T00:31:13.878Z,98853.38
2022-11-08T00:33:42.111Z,98857.16
2022-11-08T00:36:10.098Z,98849.88
2022-11-08T00:38:43.333Z,98851.94
2022-11-08T00:41:12.876Z,98848.16
2022-11-08T00:43:39.698Z,98849.81
2022-11-08T00:46:07.175Z,98844.78
2022-11-08T00:48:34.050Z,98855.81
2022-11-08T00:51:05.446Z,98845.09
2022-11-08T00:53:32.851Z,98861.13
2022-11-08T00:56:07.901Z,98860.34
2022-11-08T00:58:34.739Z,98859.25
2022-11-08T01:01:08.205Z,98857.91
2022-11-08T01:03:35.696Z,98847.69
2022-11-08T01:06:06.506Z,98850.47
2022-11-08T01:08:34.237Z,98856.34
2022-11-08T01:11:08.002Z,98860.69
2022-11-08T01:13:35.826Z,98845.66
2022-11-08T01:16:23.091Z,98846.53
2022-11-08T01:18:51.658Z,98843.09
2022-11-08T01:21:19.417Z,98843.53
2022-11-08T01:23:47.395Z,98846.47
2022-11-08T01:26:16.947Z,98846.81
2022-11-08T01:28:44.405Z,98843.72
2022-11-08T01:31:20.373Z,98831.53
2022-11-08T01:33:51.576Z,98839.66
2022-11-08T01:36:22.487Z,98830.75
2022-11-08T01:38:50.756Z,98829.41
2022-11-08T01:41:19.792Z,98836.44
2022-11-08T01:43:57.946Z,98836.31
2022-11-08T01:46:51.608Z,98832.59
2022-11-08T01:49:43.967Z,98831.63
2022-11-08T01:52:18.747Z,98826.66
2022-11-08T01:55:02.770Z,98823.25
2022-11-08T01:57:39.141Z,98820.63
2022-11-08T02:00:10.459Z,98816.22
2022-11-08T02:02:37.910Z,98819.44
2022-11-08T02:05:07.274Z,98820.41
2022-11-08T02:07:34.891Z,98809.97
2022-11-08T02:10:03.297Z,98804.97
2022-11-08T02:12:30.886Z,98809.44
2022-11-08T02:14:59.651Z,98805.25
2022-11-08T02:17:26.529Z,98803.78
2022-11-08T02:19:53.652Z,98800.59
2022-11-08T02:22:34.707Z,98798.38
2022-11-08T02:25:02.792Z,98803.34
2022-11-08T02:27:30.228Z,98793.69
2022-11-08T02:29:57.826Z,98785.16
2022-11-08T02:32:24.756Z,98792.22
2022-11-08T02:34:56.344Z,98802.47
2022-11-08T02:37:24.282Z,98796.50
2022-11-08T02:39:51.947Z,98798.44
2022-11-08T02:42:20.767Z,98797.78
2022-11-08T02:44:48.258Z,98801.22
2022-11-08T02:47:15.907Z,98799.84
2022-11-08T02:49:42.891Z,98796.00
2022-11-08T02:52:11.111Z,98797.91
2022-11-08T02:54:38.642Z,98796.69
2022-11-08T02:57:06.213Z,98800.28
2022-11-08T02:59:32.979Z,98796.81
2022-11-08T03:02:00.745Z,98795.44
2022-11-08T03:04:28.553Z,98810.06
2022-11-08T03:06:55.778Z,98806.75
2022-11-08T03:09:23.007Z,98799.59
2022-11-08T03:11:50.838Z,98800.41
2022-11-08T03:14:18.365Z,98790.47
2022-11-08T03:16:45.442Z,98793.78
2022-11-08T03:19:13.182Z,98790.47
2022-11-08T03:21:40.328Z,98788.28
2022-11-08T03:24:08.181Z,98791.31
2022-11-08T03:26:35.401Z,98792.94
2022-11-08T03:29:02.314Z,98789.22
2022-11-08T03:31:30.030Z,98793.13
2022-11-08T03:33:56.886Z,98793.78
2022-11-08T03:36:24.606Z,98793.25
2022-11-08T03:38:54.138Z,98791.97
2022-11-08T03:41:21.812Z,98782.47
2022-11-08T03:43:49.542Z,98795.16
2022-11-08T03:46:16.424Z,98793.78
2022-11-08T03:48:43.390Z,98791.69
2022-11-08T03:51:12.361Z,98792.53
2022-11-08T03:53:40.598Z,98790.06
2022-11-08T03:56:08.638Z,98787.84
2022-11-08T03:58:36.170Z,98781.91
2022-11-08T04:01:07.175Z,98789.63
2022-11-08T04:03:35.879Z,98783.91
2022-11-08T04:06:03.948Z,98782.69
2022-11-08T04:08:31.164Z,98778.97
2022-11-08T04:11:19.748Z,98783.91
2022-11-08T04:14:05.132Z,98777.28
2022-11-08T04:16:33.028Z,98783.78
2022-11-08T04:19:20.567Z,98783.25
2022-11-08T04:21:49.085Z,98770.53
2022-11-08T04:24:17.558Z,98777.69
2022-11-08T04:26:44.526Z,98778.53
2022-11-08T04:29:12.585Z,98774.88
2022-11-08T04:31:41.826Z,98766.25
2022-11-08T04:34:09.131Z,98768.69
2022-11-08T04:36:36.601Z,98758.38
2022-11-08T04:39:06.086Z,98762.25
2022-11-08T04:41:33.719Z,98770.66
2022-11-08T04:44:00.678Z,98766.66
2022-11-08T04:46:28.962Z,98763.88
2022-11-08T04:48:57.780Z,98762.00
2022-11-08T04:51:30.404Z,98754.94
2022-11-08T04:53:59.535Z,98745.13
2022-11-08T04:56:28.994Z,98740.94
2022-11-08T04:58:59.071Z,98742.28
2022-11-08T05:01:30.598Z,98736.13
2022-11-08T05:04:00.097Z,98735.69
2022-11-08T05:06:31.077Z,98740.97
2022-11-08T05:08:59.953Z,98731.25
2022-11-08T05:11:29.563Z,98728.72
2022-11-08T05:13:58.590Z,98725.69
2022-11-08T05:16:31.280Z,98715.47
2022-11-08T05:18:59.735Z,98716.63
2022-11-08T05:21:45.807Z,98713.06
2022-11-08T05:24:16.718Z,98719.13
2022-11-08T05:26:47.508Z,98723.88
2022-11-08T05:29:16.530Z,98715.47
2022-11-08T05:31:43.385Z,98709.22
2022-11-08T05:34:10.708Z,98717.38
2022-11-08T05:36:37.996Z,98711.88
2022-11-08T05:39:06.073Z,98712.59
2022-11-08T05:41:34.445Z,98714.25
2022-11-08T05:44:01.416Z,98710.63
2022-11-08T05:46:29.098Z,98716.88
2022-11-08T05:48:56.569Z,98710.13
2022-11-08T05:51:23.614Z,98715.81
2022-11-08T05:53:53.276Z,98720.75
2022-11-08T05:56:20.862Z,98719.91
2022-11-08T05:58:48.238Z,98719.66
2022-11-08T06:01:17.779Z,98725.97
2022-11-08T06:03:45.091Z,98722.66
2022-11-08T06:06:14.463Z,98724.25
2022-11-08T06:08:49.065Z,98724.53
2022-11-08T06:11:23.704Z,98715.75
2022-11-08T06:13:53.140Z,98710.72
2022-11-08T06:16:22.877Z,98712.13
2022-11-08T06:18:49.850Z,98708.78
2022-11-08T06:21:19.084Z,98711.72
2022-11-08T06:23:46.516Z,98710.41
2022-11-08T06:26:15.738Z,98710.19
2022-11-08T06:28:45.513Z,98717.25
2022-11-08T06:31:15.556Z,98715.22
2022-11-08T06:33:46.697Z,98712.72
2022-11-08T06:36:17.933Z,98721.22
2022-11-08T06:38:48.533Z,98717.59
2022-11-08T06:41:20.398Z,98710.06
2022-11-08T06:43:51.147Z,98717.34
2022-11-08T06:46:19.024Z,98713.72
2022-11-08T06:48:50.025Z,98709.88
2022-11-08T06:51:18.818Z,98709.41
2022-11-08T06:53:46.211Z,98701.00
2022-11-08T06:56:14.616Z,98706.72
2022-11-08T06:58:42.340Z,98702.03
2022-11-08T07:01:11.235Z,98711.03
2022-11-08T07:03:38.658Z,98706.31
2022-11-08T07:06:07.089Z,98702.81
2022-11-08T07:08:37.143Z,98711.16
2022-11-08T07:11:05.254Z,98705.00
2022-11-08T07:13:33.288Z,98704.22
2022-11-08T07:16:01.116Z,98687.59
2022-11-08T07:18:28.962Z,98692.47
2022-11-08T07:21:03.491Z,98689.75
2022-11-08T07:23:30.958Z,98692.41
2022-11-08T07:26:02.451Z,98688.44
2022-11-08T07:28:29.701Z,98691.72
2022-11-08T07:31:03.535Z,98691.63
2022-11-08T07:33:30.664Z,98704.56
2022-11-08T07:35:58.454Z,98703.94
2022-11-08T07:38:27.390Z,98697.59
2022-11-08T07:41:00.876Z,98703.66
2022-11-08T07:43:30.112Z,98705.16
2022-11-08T07:46:00.639Z,98711.63
2022-11-08T07:48:30.591Z,98707.19
2022-11-08T07:50:58.009Z,98709.84
2022-11-08T07:53:25.666Z,98701.28
2022-11-08T07:55:53.592Z,98693.38
2022-11-08T07:58:21.083Z,98701.91
2022-11-08T08:00:50.249Z,98701.06
2022-11-08T08:03:19.211Z,98701.56
2022-11-08T08:05:55.373Z,98700.44
2022-11-08T08:08:24.941Z,98698.44
2022-11-08T08:10:52.365Z,98685.59
2022-11-08T08:13:21.554Z,98688.34
2022-11-08T08:15:48.832Z,98684.06
2022-11-08T08:18:17.939Z,98677.16
2022-11-08T08:20:46.945Z,98667.97
2022-11-08T08:23:13.686Z,98664.34
2022-11-08T08:25:40.860Z,98659.13
2022-11-08T08:28:11.180Z,98666.25
2022-11-08T08:30:41.418Z,98679.41
2022-11-08T08:33:28.007Z,98679.47
2022-11-08T08:36:02.909Z,98685.91
2022-11-08T08:38:33.045Z,98677.34
2022-11-08T08:41:03.864Z,98670.88
2022-11-08T08:43:34.491Z,98672.31
2022-11-08T08:46:04.103Z,98668.72
2022-11-08T08:48:31.087Z,98671.91
2022-11-08T08:51:00.918Z,98669.88
2022-11-08T08:53:30.914Z,98673.28
2022-11-08T08:55:59.657Z,98664.34
2022-11-08T08:58:27.021Z,98674.94
2022-11-08T09:03:50.922Z,98680.28
2022-11-08T09:06:18.376Z,98674.91
2022-11-08T09:08:47.844Z,98676.44
2022-11-08T09:11:14.519Z,98678.78
2022-11-08T09:13:42.992Z,98678.97
2022-11-08T09:16:10.866Z,98681.63
2022-11-08T09:18:37.955Z,98687.72
2022-11-08T09:21:06.865Z,98687.75
2022-11-08T09:23:36.218Z,98690.25
2022-11-08T09:26:07.037Z,98687.78
2022-11-08T09:28:37.771Z,98697.00
2022-11-08T09:31:08.391Z,98685.66
2022-11-08T09:33:37.544Z,98689.91
2022-11-08T09:36:06.358Z,98691.19
2022-11-08T09:38:34.277Z,98692.66
2022-11-08T09:41:19.705Z,98692.34
2022-11-08T09:44:44.846Z,98690.69
2022-11-08T09:47:19.800Z,98696.06
2022-11-08T09:50:23.897Z,98697.94
2022-11-08T09:53:15.856Z,98698.09
2022-11-08T09:56:06.699Z,98697.09
2022-11-08T09:58:44.024Z,98682.63
2022-11-08T10:01:14.604Z,98685.09
2022-11-08T10:03:47.994Z,98681.50
2022-11-08T10:06:24.634Z,98670.78
2022-11-08T10:09:30.464Z,98674.78
2022-11-08T10:12:43.786Z,98673.00
2022-11-08T10:15:39.137Z,98669.25
2022-11-08T10:18:40.782Z,98672.06
2022-11-08T10:21:33.403Z,98648.81
2022-11-08T10:24:10.150Z,98656.50
2022-11-08T10:26:46.943Z,98656.00
2022-11-08T10:29:38.229Z,98653.50
2022-11-08T10:32:22.827Z,98652.94
2022-11-08T10:34:55.694Z,98656.22
2022-11-08T10:37:24.084Z,98644.66
2022-11-08T10:39:59.053Z,98645.78
2022-11-08T10:42:36.810Z,98639.28
2022-11-08T10:45:03.955Z,98636.75
2022-11-08T10:47:33.678Z,98629.84
2022-11-08T10:50:04.015Z,98624.31
2022-11-08T10:53:00.719Z,98617.88
2022-11-08T10:55:31.662Z,98612.38
2022-11-08T10:57:58.681Z,98616.38
2022-11-08T11:00:29.171Z,98605.78
2022-11-08T11:03:02.211Z,98602.91
2022-11-08T11:05:38.233Z,98612.91
2022-11-08T11:08:17.111Z,98601.63
2022-11-08T11:10:46.932Z,98593.75
2022-11-08T11:16:03.747Z,98584.91
2022-11-08T11:18:46.511Z,98584.56
2022-11-08T11:21:17.917Z,98580.91
2022-11-08T11:23:56.444Z,98579.00
2022-11-08T11:26:34.534Z,98577.81
2022-11-08T11:29:30.983Z,98581.69
2022-11-08T11:32:00.808Z,98589.63
2022-11-08T11:34:39.634Z,98584.41
2022-11-08T11:37:32.984Z,98575.47
2022-11-08T11:40:11.620Z,98581.75
2022-11-08T11:43:22.754Z,98579.41
2022-11-08T11:46:15.909Z,98578.22
2022-11-08T11:48:52.311Z,98583.81
2022-11-08T11:51:20.938Z,98584.19
2022-11-08T11:53:48.918Z,98572.50
2022-11-08T11:57:12.652Z,98576.97
2022-11-08T12:00:23.224Z,98560.72
2022-11-08T12:03:36.833Z,98566.84
2022-11-08T12:06:40.751Z,98562.19
2022-11-08T12:09:26.539Z,98555.44
2022-11-08T12:12:13.898Z,98556.81
2022-11-08T12:18:42.766Z,98556.53
2022-11-08T12:21:25.413Z,98552.97
2022-11-08T12:24:12.149Z,98556.44
2022-11-08T12:27:06.305Z,98554.72
2022-11-08T12:29:42.041Z,98551.78
2022-11-08T12:32:27.924Z,98545.66
2022-11-08T12:35:37.157Z,98549.22
2022-11-08T12:38:18.559Z,98547.75
2022-11-08T12:40:59.665Z,98553.13
2022-11-08T12:43:44.888Z,98550.31
2022-11-08T12:46:18.667Z,98540.59
2022-11-08T12:49:47.823Z,98531.38
2022-11-08T12:55:30.753Z,98527.88
2022-11-08T12:57:58.991Z,98523.13
2022-11-08T13:00:27.903Z,98525.75
2022-11-08T13:03:38.130Z,98514.56
2022-11-08T13:06:30.137Z,98526.53
2022-11-08T13:09:09.397Z,98524.06
2022-11-08T13:12:01.734Z,98524.34
2022-11-08T13:14:28.438Z,98515.66
2022-11-08T13:17:25.824Z,98511.47
2022-11-08T13:20:05.914Z,98503.75
2022-11-08T13:22:45.087Z,98499.59
2022-11-08T13:25:33.413Z,98506.59
2022-11-08T13:28:00.210Z,98503.31
2022-11-08T13:30:34.245Z,98493.50
2022-11-08T13:33:22.533Z,98495.81
2022-11-08T13:36:02.390Z,98503.84
2022-11-08T13:39:18.531Z,98521.28
2022-11-08T13:42:08.490Z,98518.16
2022-11-08T13:44:59.897Z,98511.06
2022-11-08T13:47:55.108Z,98501.31
2022-11-08T13:50:49.109Z,98498.41
2022-11-08T13:53:52.095Z,98499.78
2022-11-08T13:56:26.443Z,98508.06
2022-11-08T13:58:53.054Z,98519.50
2022-11-08T14:01:46.634Z,98513.94
2022-11-08T14:04:26.124Z,98512.41
2022-11-08T14:07:24.773Z,98514.69
2022-11-08T14:10:28.167Z,98516.50
2022-11-08T14:13:43.479Z,98510.25
2022-11-08T14:16:32.005Z,98509.63
2022-11-08T14:19:21.107Z,98511.91
2022-11-08T14:21:50.626Z,98506.91
2022-11-08T14:24:21.943Z,98511.84
2022-11-08T14:26:49.038Z,98506.53
2022-11-08T14:29:18.238Z,98508.91
2022-11-08T14:31:46.101Z,98506.34
2022-11-08T14:34:31.625Z,98524.47
2022-11-08T14:37:00.448Z,98509.16
2022-11-08T14:39:35.174Z,98506.34
2022-11-08T14:42:04.692Z,98506.59
2022-11-08T14:44:32.554Z,98514.72
2022-11-08T14:47:00.111Z,98512.09
2022-11-08T14:49:48.257Z,98515.69
2022-11-08T14:52:17.681Z,98517.88
2022-11-08T14:54:46.625Z,98511.41
2022-11-08T14:57:33.281Z,98520.69
2022-11-08T15:00:04.204Z,98510.00
2022-11-08T15:02:32.149Z,98494.41
2022-11-08T15:04:59.406Z,98486.56
2022-11-08T15:07:26.993Z,98493.53
2022-11-08T15:09:54.179Z,98497.81
2022-11-08T15:12:24.485Z,98489.84
2022-11-08T15:14:55.446Z,98496.34
2022-11-08T15:17:41.530Z,98489.34
2022-11-08T15:20:20.320Z,98488.56
2022-11-08T15:22:51.808Z,98480.41
2022-11-08T15:25:34.825Z,98491.03
2022-11-08T15:28:26.128Z,98493.25
2022-11-08T15:30:58.279Z,98498.03
2022-11-08T15:33:27.479Z,98493.34
2022-11-08T15:35:54.276Z,98496.88
2022-11-08T15:38:33.505Z,98505.56
2022-11-08T15:41:03.935Z,98493.53
2022-11-08T15:43:40.620Z,98495.22
2022-11-08T15:46:26.811Z,98495.72
2022-11-08T15:48:58.209Z,98496.56
2022-11-08T15:51:25.541Z,98493.19
2022-11-08T15:53:52.787Z,98497.22
2022-11-08T15:56:19.834Z,98494.97
2022-11-08T15:58:46.735Z,98492.03
2022-11-08T16:01:20.687Z,98495.69
2022-11-08T16:03:48.596Z,98485.97
2022-11-08T16:06:15.692Z,98481.22
2022-11-08T16:08:42.777Z,98474.50
2022-11-08T16:11:18.538Z,98488.19
2022-11-08T16:13:45.748Z,98484.09
2022-11-08T16:16:14.705Z,98482.44
2022-11-08T16:18:42.505Z,98482.47
2022-11-08T16:21:13.459Z,98483.28
2022-11-08T16:23:41.144Z,98487.56
2022-11-08T16:26:14.908Z,98499.94
2022-11-08T16:28:41.870Z,98478.22
2022-11-08T16:31:16.513Z,98489.41
2022-11-08T16:33:45.778Z,98493.38
2022-11-08T16:36:28.109Z,98489.75
2022-11-08T16:38:59.252Z,98485.66
2022-11-08T16:41:26.507Z,98486.66
2022-11-08T16:43:53.555Z,98491.75
2022-11-08T16:46:21.930Z,98497.31
2022-11-08T16:48:57.665Z,98500.13
2022-11-08T16:51:25.609Z,98500.47
2022-11-08T16:53:53.042Z,98498.31
2022-11-08T16:56:20.781Z,98501.78
2022-11-08T16:58:47.916Z,98496.34
2022-11-08T17:01:21.079Z,98493.06
2022-11-08T17:03:47.926Z,98511.66
2022-11-08T17:06:18.388Z,98509.16
2022-11-08T17:08:48.366Z,98502.94
2022-11-08T17:11:20.901Z,98512.44
2022-11-08T17:13:48.250Z,98506.88
2022-11-08T17:16:15.842Z,98509.84
2022-11-08T17:18:42.869Z,98502.59
2022-11-08T17:21:38.237Z,98517.72
2022-11-08T17:24:00.440Z,98517.88
2022-11-08T17:26:28.276Z,98508.84
2022-11-08T17:28:56.917Z,98500.94
2022-11-08T17:31:23.959Z,98514.06
2022-11-08T17:33:50.760Z,98509.78
2022-11-08T17:36:17.470Z,98505.84
2022-11-08T17:38:45.328Z,98502.88
2022-11-08T17:41:17.273Z,98504.19
2022-11-08T17:43:44.819Z,98500.59
2022-11-08T17:46:12.082Z,98508.28
2022-11-08T17:48:40.135Z,98510.13
2022-11-08T17:51:07.564Z,98506.66
2022-11-08T17:53:34.768Z,98511.94
2022-11-08T17:56:04.485Z,98511.91
2022-11-08T17:58:34.467Z,98509.75
2022-11-08T18:01:03.890Z,98508.16
2022-11-08T18:03:30.875Z,98506.97
2022-11-08T18:05:57.604Z,98515.31
2022-11-08T18:08:27.013Z,98517.09
2022-11-08T18:10:55.793Z,98510.34
2022-11-08T18:13:24.310Z,98513.97
2022-11-08T18:15:50.992Z,98495.53
2022-11-08T18:18:17.966Z,98510.47
2022-11-08T18:20:46.068Z,98511.59
2022-11-08T18:23:13.182Z,98514.63
2022-11-08T18:25:40.387Z,98516.22
2022-11-08T18:28:07.517Z,98516.88
2022-11-08T18:30:34.447Z,98508.91
2022-11-08T18:33:02.211Z,98507.94
2022-11-08T18:35:28.984Z,98506.34
2022-11-08T18:37:55.946Z,98510.75
2022-11-08T18:40:23.137Z,98502.88
2022-11-08T18:42:50.132Z,98505.16
2022-11-08T18:45:16.941Z,98504.13
2022-11-08T18:47:43.926Z,98488.88
2022-11-08T18:50:11.079Z,98498.03
2022-11-08T18:52:44.023Z,98501.66
2022-11-08T18:55:15.187Z,98506.47
2022-11-08T18:57:42.278Z,98504.13
2022-11-08T19:00:09.779Z,98506.97
2022-11-08T19:02:38.292Z,98501.88
2022-11-08T19:05:06.125Z,98513.19
2022-11-08T19:07:33.307Z,98511.53
2022-11-08T19:10:00.115Z,98507.06
2022-11-08T19:12:28.809Z,98509.91
2022-11-08T19:14:56.249Z,98507.63
2022-11-08T19:17:23.089Z,98503.31
2022-11-08T19:19:50.745Z,98506.91
2022-11-08T19:22:17.486Z,98504.63
2022-11-08T19:24:44.328Z,98504.94
2022-11-08T19:27:11.187Z,98507.13
2022-11-08T19:29:38.632Z,98510.41
2022-11-08T19:32:05.649Z,98503.13
2022-11-08T19:34:33.790Z,98510.66
2022-11-08T19:37:01.321Z,98507.63
2022-11-08T19:39:28.527Z,98503.22
2022-11-08T19:41:55.924Z,98507.41
2022-11-08T19:44:22.807Z,98499.88
2022-11-08T19:46:49.641Z,98506.47
2022-11-08T19:49:17.070Z,98501.16
2022-11-08T19:51:43.791Z,98512.22
2022-11-08T19:54:12.871Z,98511.38
2022-11-08T19:59:26.601Z,98513.66
2022-11-08T20:01:53.473Z,98515.28
2022-11-08T20:04:22.402Z,98516.78
2022-11-08T20:06:49.459Z,98509.53
2022-11-08T20:09:16.498Z,98501.88
2022-11-08T20:11:43.327Z,98514.84
2022-11-08T20:14:12.713Z,98505.34
2022-11-08T20:16:42.301Z,98513.97
2022-11-08T20:19:14.233Z,98508.41
2022-11-08T20:21:42.690Z,98509.66
2022-11-08T20:24:11.190Z,98502.13
2022-11-08T20:26:39.068Z,98510.38
2022-11-08T20:29:07.447Z,98509.88
2022-11-08T20:31:35.144Z,98508.47
2022-11-08T20:34:02.045Z,98514.78
2022-11-08T20:36:34.594Z,98508.75
2022-11-08T20:39:06.517Z,98517.13
2022-11-08T20:41:35.064Z,98508.53
2022-11-08T20:44:01.893Z,98506.91
2022-11-08T20:46:29.892Z,98500.97
2022-11-08T20:49:00.169Z,98503.22
2022-11-08T20:51:28.059Z,98499.94
2022-11-08T20:53:55.882Z,98501.66
2022-11-08T20:56:23.701Z,98499.53
2022-11-08T20:58:51.824Z,98501.81
2022-11-08T21:01:20.708Z,98506.28
2022-11-08T21:03:49.154Z,98498.38
2022-11-08T21:06:18.465Z,98502.50
2022-11-08T21:09:08.326Z,98493.22
2022-11-08T21:11:34.876Z,98515.94
2022-11-08T21:14:03.073Z,98521.53
2022-11-08T21:16:38.184Z,98497.34
2022-11-08T21:19:09.845Z,98504.66
2022-11-08T21:21:36.940Z,98500.03
2022-11-08T21:24:04.079Z,98493.50
2022-11-08T21:26:36.703Z,98489.34
2022-11-08T21:29:05.725Z,98487.66
2022-11-08T21:31:33.365Z,98490.50
2022-11-08T21:34:00.365Z,98505.28
2022-11-08T21:36:29.504Z,98494.63
2022-11-08T21:38:56.361Z,98493.00
2022-11-08T21:41:23.523Z,98497.75
2022-11-08T21:43:50.339Z,98500.31
2022-11-08T21:46:23.506Z,98504.66
2022-11-08T21:48:58.902Z,98506.47
2022-11-08T21:51:26.879Z,98495.47
2022-11-08T21:53:55.760Z,98499.59
2022-11-08T21:56:30.302Z,98512.38
2022-11-08T21:58:57.373Z,98510.38
2022-11-08T22:01:29.712Z,98513.81
2022-11-08T22:03:57.919Z,98523.53
2022-11-08T22:06:24.593Z,98507.25
2022-11-08T22:08:51.801Z,98506.56
2022-11-08T22:11:19.335Z,98496.75
2022-11-08T22:13:46.583Z,98495.91
2022-11-08T22:16:13.917Z,98510.03
2022-11-08T22:21:40.512Z,98503.00
2022-11-08T22:24:18.601Z,98514.34
2022-11-08T22:26:46.762Z,98510.75
2022-11-08T22:29:14.136Z,98505.28
2022-11-08T22:31:41.700Z,98516.28
2022-11-08T22:34:09.673Z,98521.25
2022-11-08T22:36:42.911Z,98519.84
2022-11-08T22:39:13.193Z,98509.31
2022-11-08T22:41:39.870Z,98518.38
2022-11-08T22:44:11.774Z,98516.09
2022-11-08T22:46:39.223Z,98506.72
2022-11-08T22:49:06.239Z,98507.25
2022-11-08T22:51:32.882Z,98502.44
2022-11-08T22:54:00.124Z,98507.34
2022-11-08T22:56:27.743Z,98506.91
2022-11-08T22:58:54.642Z,98510.81
2022-11-08T23:01:21.624Z,98508.53
2022-11-08T23:03:48.417Z,98495.59
2022-11-08T23:06:16.083Z,98486.53
2022-11-08T23:08:43.394Z,98487.53
2022-11-08T23:11:29.844Z,98501.00
2022-11-08T23:14:15.181Z,98508.91
2022-11-08T23:16:43.834Z,98511.69
2022-11-08T23:19:37.724Z,98506.28
2022-11-08T23:22:24.884Z,98522.38
2022-11-08T23:24:51.717Z,98516.44
2022-11-08T23:27:38.274Z,98522.38
2022-11-08T23:30:25.175Z,98517.78
2022-11-08T23:32:52.695Z,98516.78
2022-11-08T23:35:20.868Z,98521.25
2022-11-08T23:37:47.638Z,98517.78
2022-11-08T23:40:34.614Z,98503.31
2022-11-08T23:43:34.208Z,98500.53
2022-11-08T23:46:09.856Z,98504.66
2022-11-08T23:48:39.061Z,98503.50
2022-11-08T23:51:07.246Z,98497.03
2022-11-08T23:53:37.382Z,98492.13
2022-11-08T23:56:05.038Z,98485.25
2022-11-08T23:58:32.806Z,98493.81
